sensor_id;sensor_type;location;lat;lon;timestamp;temperature;humidity
29353;DHT22;16344;50.364;8.944;2022-08-18T00:02:05;24.20;1.00
29353;DHT22;16344;50.364;8.944;2022-08-18T00:04:33;24.30;1.00
29353;DHT22;16344;50.364;8.944;2022-08-18T00:07:04;24.20;1.00
29353;DHT22;16344;50.364;8.944;2022-08-18T00:09:30;24.20;1.00
29353;DHT22;16344;50.364;8.944;2022-08-18T00:11:55;24.20;1.00
29353;DHT22;16344;50.364;8.944;2022-08-18T00:14:21;24.20;1.00
29353;DHT22;16344;50.364;8.944;2022-08-18T00:16:47;24.10;1.00
29353;DHT22;16344;50.364;8.944;2022-08-18T00:19:13;24.20;1.00
29353;DHT22;16344;50.364;8.944;2022-08-18T00:21:39;24.10;1.00
29353;DHT22;16344;50.364;8.944;2022-08-18T00:24:04;24.10;1.00
29353;DHT22;16344;50.364;8.944;2022-08-18T00:26:30;24.00;1.00
29353;DHT22;16344;50.364;8.944;2022-08-18T00:28:55;23.90;1.00
29353;DHT22;16344;50.364;8.944;2022-08-18T00:31:21;23.90;1.00
29353;DHT22;16344;50.364;8.944;2022-08-18T00:33:46;23.90;1.00
29353;DHT22;16344;50.364;8.944;2022-08-18T00:36:12;23.90;1.00
29353;DHT22;16344;50.364;8.944;2022-08-18T00:38:38;23.90;1.00
29353;DHT22;16344;50.364;8.944;2022-08-18T00:41:04;23.90;1.00
29353;DHT22;16344;50.364;8.944;2022-08-18T00:43:42;23.90;1.00
29353;DHT22;16344;50.364;8.944;2022-08-18T00:46:17;23.80;1.00
29353;DHT22;16344;50.364;8.944;2022-08-18T00:48:44;23.80;1.00
29353;DHT22;16344;50.364;8.944;2022-08-18T00:51:14;23.80;1.00
29353;DHT22;16344;50.364;8.944;2022-08-18T00:53:59;23.80;1.00
29353;DHT22;16344;50.364;8.944;2022-08-18T00:56:29;23.80;1.00
29353;DHT22;16344;50.364;8.944;2022-08-18T00:59:08;23.70;1.00
29353;DHT22;16344;50.364;8.944;2022-08-18T01:01:35;23.60;1.00
29353;DHT22;16344;50.364;8.944;2022-08-18T01:04:19;23.60;1.00
29353;DHT22;16344;50.364;8.944;2022-08-18T01:06:52;23.60;1.00
29353;DHT22;16344;50.364;8.944;2022-08-18T01:09:19;23.60;1.00
29353;DHT22;16344;50.364;8.944;2022-08-18T01:11:45;23.70;1.00
29353;DHT22;16344;50.364;8.944;2022-08-18T01:14:12;23.70;1.00
29353;DHT22;16344;50.364;8.944;2022-08-18T01:16:43;23.80;1.00
29353;DHT22;16344;50.364;8.944;2022-08-18T01:19:28;23.80;1.00
29353;DHT22;16344;50.364;8.944;2022-08-18T01:22:21;23.90;1.00
29353;DHT22;16344;50.364;8.944;2022-08-18T01:24:49;23.80;1.00
29353;DHT22;16344;50.364;8.944;2022-08-18T01:27:34;23.80;1.00
29353;DHT22;16344;50.364;8.944;2022-08-18T01:30:09;23.90;1.00
29353;DHT22;16344;50.364;8.944;2022-08-18T01:32:36;23.80;1.00
29353;DHT22;16344;50.364;8.944;2022-08-18T01:35:03;23.60;1.00
29353;DHT22;16344;50.364;8.944;2022-08-18T01:37:29;23.50;1.00
29353;DHT22;16344;50.364;8.944;2022-08-18T01:39:55;23.50;1.00
29353;DHT22;16344;50.364;8.944;2022-08-18T01:42:21;23.60;1.00
29353;DHT22;16344;50.364;8.944;2022-08-18T01:44:47;23.60;1.00
29353;DHT22;16344;50.364;8.944;2022-08-18T01:47:15;23.60;1.00
29353;DHT22;16344;50.364;8.944;2022-08-18T01:49:42;23.60;1.00
29353;DHT22;16344;50.364;8.944;2022-08-18T01:52:12;23.60;1.00
29353;DHT22;16344;50.364;8.944;2022-08-18T01:54:38;23.50;1.00
29353;DHT22;16344;50.364;8.944;2022-08-18T01:57:05;23.30;1.00
29353;DHT22;16344;50.364;8.944;2022-08-18T01:59:31;23.20;1.00
29353;DHT22;16344;50.364;8.944;2022-08-18T02:01:56;23.20;1.00
29353;DHT22;16344;50.364;8.944;2022-08-18T02:04:27;23.20;1.00
29353;DHT22;16344;50.364;8.944;2022-08-18T02:06:56;23.20;1.00
29353;DHT22;16344;50.364;8.944;2022-08-18T02:09:22;23.20;1.00
29353;DHT22;16344;50.364;8.944;2022-08-18T02:11:47;23.20;1.00
29353;DHT22;16344;50.364;8.944;2022-08-18T02:14:13;23.20;1.00
29353;DHT22;16344;50.364;8.944;2022-08-18T02:16:38;23.20;1.00
29353;DHT22;16344;50.364;8.944;2022-08-18T02:19:04;23.30;1.00
29353;DHT22;16344;50.364;8.944;2022-08-18T02:21:29;23.20;1.00
29353;DHT22;16344;50.364;8.944;2022-08-18T02:23:55;23.10;1.00
29353;DHT22;16344;50.364;8.944;2022-08-18T02:26:21;23.10;1.00
29353;DHT22;16344;50.364;8.944;2022-08-18T02:28:48;23.20;1.00
29353;DHT22;16344;50.364;8.944;2022-08-18T02:31:17;23.10;1.00
29353;DHT22;16344;50.364;8.944;2022-08-18T02:33:43;23.10;1.00
29353;DHT22;16344;50.364;8.944;2022-08-18T02:36:10;23.10;1.00
29353;DHT22;16344;50.364;8.944;2022-08-18T02:38:37;23.10;1.00
29353;DHT22;16344;50.364;8.944;2022-08-18T02:41:06;23.00;1.00
29353;DHT22;16344;50.364;8.944;2022-08-18T02:43:32;23.00;1.00
29353;DHT22;16344;50.364;8.944;2022-08-18T02:45:58;23.00;1.00
29353;DHT22;16344;50.364;8.944;2022-08-18T02:48:23;23.20;1.00
29353;DHT22;16344;50.364;8.944;2022-08-18T02:51:10;23.10;1.00
29353;DHT22;16344;50.364;8.944;2022-08-18T02:53:40;23.20;1.00
29353;DHT22;16344;50.364;8.944;2022-08-18T02:56:13;23.10;1.00
29353;DHT22;16344;50.364;8.944;2022-08-18T02:58:42;23.00;1.00
29353;DHT22;16344;50.364;8.944;2022-08-18T03:01:07;22.90;1.00
29353;DHT22;16344;50.364;8.944;2022-08-18T03:03:33;22.80;1.00
29353;DHT22;16344;50.364;8.944;2022-08-18T03:05:58;22.70;1.00
29353;DHT22;16344;50.364;8.944;2022-08-18T03:08:24;22.50;1.00
29353;DHT22;16344;50.364;8.944;2022-08-18T03:10:52;22.40;1.00
29353;DHT22;16344;50.364;8.944;2022-08-18T03:13:18;22.40;1.00
29353;DHT22;16344;50.364;8.944;2022-08-18T03:15:45;22.30;1.00
29353;DHT22;16344;50.364;8.944;2022-08-18T03:18:11;22.10;1.00
29353;DHT22;16344;50.364;8.944;2022-08-18T03:20:37;22.20;1.00
29353;DHT22;16344;50.364;8.944;2022-08-18T03:23:04;22.20;1.00
29353;DHT22;16344;50.364;8.944;2022-08-18T03:25:29;22.30;1.00
29353;DHT22;16344;50.364;8.944;2022-08-18T03:27:55;22.50;1.00
29353;DHT22;16344;50.364;8.944;2022-08-18T03:30:21;22.50;1.00
29353;DHT22;16344;50.364;8.944;2022-08-18T03:32:48;22.60;1.00
29353;DHT22;16344;50.364;8.944;2022-08-18T03:35:14;22.60;1.00
29353;DHT22;16344;50.364;8.944;2022-08-18T03:37:41;22.60;1.00
29353;DHT22;16344;50.364;8.944;2022-08-18T03:40:07;22.60;1.00
29353;DHT22;16344;50.364;8.944;2022-08-18T03:42:35;22.60;1.00
29353;DHT22;16344;50.364;8.944;2022-08-18T03:45:00;22.60;1.00
29353;DHT22;16344;50.364;8.944;2022-08-18T03:47:26;22.60;1.00
29353;DHT22;16344;50.364;8.944;2022-08-18T03:49:52;22.60;1.00
29353;DHT22;16344;50.364;8.944;2022-08-18T03:52:18;22.60;1.00
29353;DHT22;16344;50.364;8.944;2022-08-18T03:54:44;22.60;1.00
29353;DHT22;16344;50.364;8.944;2022-08-18T03:57:11;22.60;1.00
29353;DHT22;16344;50.364;8.944;2022-08-18T03:59:37;22.70;1.00
29353;DHT22;16344;50.364;8.944;2022-08-18T04:02:05;22.60;1.00
29353;DHT22;16344;50.364;8.944;2022-08-18T04:04:31;22.60;1.00
29353;DHT22;16344;50.364;8.944;2022-08-18T04:06:59;22.60;1.00
29353;DHT22;16344;50.364;8.944;2022-08-18T04:09:27;22.50;1.00
29353;DHT22;16344;50.364;8.944;2022-08-18T04:11:54;22.60;1.00
29353;DHT22;16344;50.364;8.944;2022-08-18T04:14:22;22.60;1.00
29353;DHT22;16344;50.364;8.944;2022-08-18T04:16:56;22.60;1.00
29353;DHT22;16344;50.364;8.944;2022-08-18T04:19:22;22.50;1.00
29353;DHT22;16344;50.364;8.944;2022-08-18T04:21:50;22.50;1.00
29353;DHT22;16344;50.364;8.944;2022-08-18T04:24:16;22.60;1.00
29353;DHT22;16344;50.364;8.944;2022-08-18T04:26:44;22.60;1.00
29353;DHT22;16344;50.364;8.944;2022-08-18T04:29:11;22.70;1.00
29353;DHT22;16344;50.364;8.944;2022-08-18T04:31:37;22.70;1.00
29353;DHT22;16344;50.364;8.944;2022-08-18T04:34:04;22.70;1.00
29353;DHT22;16344;50.364;8.944;2022-08-18T04:36:30;22.80;1.00
29353;DHT22;16344;50.364;8.944;2022-08-18T04:38:58;22.70;1.00
29353;DHT22;16344;50.364;8.944;2022-08-18T04:41:24;22.70;1.00
29353;DHT22;16344;50.364;8.944;2022-08-18T04:43:53;22.60;1.00
29353;DHT22;16344;50.364;8.944;2022-08-18T04:46:18;22.70;1.00
29353;DHT22;16344;50.364;8.944;2022-08-18T04:48:44;22.50;1.00
29353;DHT22;16344;50.364;8.944;2022-08-18T04:51:12;22.50;1.00
29353;DHT22;16344;50.364;8.944;2022-08-18T04:53:39;22.40;7.20
29353;DHT22;16344;50.364;8.944;2022-08-18T04:56:48;22.30;14.00
29353;DHT22;16344;50.364;8.944;2022-08-18T04:59:10;22.30;14.80
29353;DHT22;16344;50.364;8.944;2022-08-18T05:01:39;22.40;17.70
29353;DHT22;16344;50.364;8.944;2022-08-18T05:04:05;22.20;33.70
29353;DHT22;16344;50.364;8.944;2022-08-18T05:06:31;22.10;49.80
29353;DHT22;16344;50.364;8.944;2022-08-18T05:08:59;22.20;54.80
29353;DHT22;16344;50.364;8.944;2022-08-18T05:11:27;22.10;68.80
29353;DHT22;16344;50.364;8.944;2022-08-18T05:13:55;22.00;86.20
29353;DHT22;16344;50.364;8.944;2022-08-18T05:16:25;21.90;99.90
29353;DHT22;16344;50.364;8.944;2022-08-18T05:18:51;22.00;99.90
29353;DHT22;16344;50.364;8.944;2022-08-18T05:21:18;22.10;99.90
29353;DHT22;16344;50.364;8.944;2022-08-18T05:23:46;22.10;99.90
29353;DHT22;16344;50.364;8.944;2022-08-18T05:26:14;22.20;96.80
29353;DHT22;16344;50.364;8.944;2022-08-18T05:28:41;22.30;96.90
29353;DHT22;16344;50.364;8.944;2022-08-18T05:31:09;22.40;93.40
29353;DHT22;16344;50.364;8.944;2022-08-18T05:33:36;22.50;77.70
29353;DHT22;16344;50.364;8.944;2022-08-18T05:36:57;22.50;45.90
29353;DHT22;16344;50.364;8.944;2022-08-18T05:41:43;22.20;83.10
29353;DHT22;16344;50.364;8.944;2022-08-18T05:44:13;22.20;93.20
29353;DHT22;16344;50.364;8.944;2022-08-18T05:46:45;22.20;96.40
29353;DHT22;16344;50.364;8.944;2022-08-18T05:49:13;22.20;89.50
29353;DHT22;16344;50.364;8.944;2022-08-18T05:51:53;22.50;61.70
29353;DHT22;16344;50.364;8.944;2022-08-18T05:54:20;22.40;46.30
29353;DHT22;16344;50.364;8.944;2022-08-18T05:57:11;22.50;40.70
29353;DHT22;16344;50.364;8.944;2022-08-18T05:59:40;22.40;27.00
29353;DHT22;16344;50.364;8.944;2022-08-18T06:02:59;22.40;40.70
29353;DHT22;16344;50.364;8.944;2022-08-18T06:05:37;22.40;33.80
29353;DHT22;16344;50.364;8.944;2022-08-18T06:08:08;22.30;37.70
29353;DHT22;16344;50.364;8.944;2022-08-18T06:10:37;22.30;28.40
29353;DHT22;16344;50.364;8.944;2022-08-18T06:13:03;22.40;27.80
29353;DHT22;16344;50.364;8.944;2022-08-18T06:15:41;22.40;39.90
29353;DHT22;16344;50.364;8.944;2022-08-18T06:21:07;22.30;61.70
29353;DHT22;16344;50.364;8.944;2022-08-18T06:23:40;22.30;75.10
29353;DHT22;16344;50.364;8.944;2022-08-18T06:26:31;22.30;79.20
29353;DHT22;16344;50.364;8.944;2022-08-18T06:29:21;22.40;85.90
29353;DHT22;16344;50.364;8.944;2022-08-18T06:35:00;22.40;86.50
29353;DHT22;16344;50.364;8.944;2022-08-18T06:38:01;22.20;99.90
29353;DHT22;16344;50.364;8.944;2022-08-18T06:40:48;22.10;99.90
29353;DHT22;16344;50.364;8.944;2022-08-18T06:43:15;22.10;99.90
29353;DHT22;16344;50.364;8.944;2022-08-18T06:45:43;22.10;99.90
29353;DHT22;16344;50.364;8.944;2022-08-18T06:48:23;22.10;99.90
29353;DHT22;16344;50.364;8.944;2022-08-18T06:50:54;22.10;99.90
29353;DHT22;16344;50.364;8.944;2022-08-18T06:53:20;22.10;99.90
29353;DHT22;16344;50.364;8.944;2022-08-18T06:55:48;22.20;99.90
29353;DHT22;16344;50.364;8.944;2022-08-18T07:03:17;22.20;99.90
29353;DHT22;16344;50.364;8.944;2022-08-18T07:06:07;22.10;99.90
29353;DHT22;16344;50.364;8.944;2022-08-18T07:08:41;22.00;99.90
29353;DHT22;16344;50.364;8.944;2022-08-18T07:13:42;22.10;99.90
29353;DHT22;16344;50.364;8.944;2022-08-18T07:16:31;22.10;99.90
29353;DHT22;16344;50.364;8.944;2022-08-18T07:19:07;22.00;99.90
29353;DHT22;16344;50.364;8.944;2022-08-18T07:21:35;22.00;99.90
29353;DHT22;16344;50.364;8.944;2022-08-18T07:24:13;22.10;99.90
29353;DHT22;16344;50.364;8.944;2022-08-18T07:29:29;22.10;99.90
29353;DHT22;16344;50.364;8.944;2022-08-18T07:31:58;22.10;99.90
29353;DHT22;16344;50.364;8.944;2022-08-18T07:34:29;22.00;99.90
29353;DHT22;16344;50.364;8.944;2022-08-18T07:39:53;22.00;99.90
29353;DHT22;16344;50.364;8.944;2022-08-18T07:42:45;22.00;99.90
29353;DHT22;16344;50.364;8.944;2022-08-18T07:45:18;22.00;99.90
29353;DHT22;16344;50.364;8.944;2022-08-18T07:47:54;21.90;99.90
29353;DHT22;16344;50.364;8.944;2022-08-18T07:50:21;22.10;99.90
29353;DHT22;16344;50.364;8.944;2022-08-18T07:53:00;22.00;99.90
29353;DHT22;16344;50.364;8.944;2022-08-18T07:55:32;21.90;99.90
29353;DHT22;16344;50.364;8.944;2022-08-18T08:03:40;22.00;99.90
29353;DHT22;16344;50.364;8.944;2022-08-18T08:06:18;22.10;99.90
29353;DHT22;16344;50.364;8.944;2022-08-18T08:08:56;22.00;99.90
29353;DHT22;16344;50.364;8.944;2022-08-18T08:14:05;22.20;99.90
29353;DHT22;16344;50.364;8.944;2022-08-18T08:19:24;22.20;99.90
29353;DHT22;16344;50.364;8.944;2022-08-18T08:22:04;22.30;99.90
29353;DHT22;16344;50.364;8.944;2022-08-18T08:24:57;22.30;99.90
29353;DHT22;16344;50.364;8.944;2022-08-18T08:30:23;22.50;99.90
29353;DHT22;16344;50.364;8.944;2022-08-18T08:33:00;22.50;99.90
29353;DHT22;16344;50.364;8.944;2022-08-18T08:35:40;22.50;99.90
29353;DHT22;16344;50.364;8.944;2022-08-18T08:38:20;22.40;99.90
29353;DHT22;16344;50.364;8.944;2022-08-18T08:40:58;22.50;99.90
29353;DHT22;16344;50.364;8.944;2022-08-18T08:43:31;22.50;99.90
29353;DHT22;16344;50.364;8.944;2022-08-18T08:46:10;22.40;99.90
29353;DHT22;16344;50.364;8.944;2022-08-18T08:48:51;22.50;99.90
29353;DHT22;16344;50.364;8.944;2022-08-18T08:51:27;22.60;99.90
29353;DHT22;16344;50.364;8.944;2022-08-18T08:53:59;22.50;99.90
29353;DHT22;16344;50.364;8.944;2022-08-18T08:56:35;22.50;99.90
29353;DHT22;16344;50.364;8.944;2022-08-18T08:59:07;22.40;99.90
29353;DHT22;16344;50.364;8.944;2022-08-18T09:07:56;22.40;99.90
29353;DHT22;16344;50.364;8.944;2022-08-18T09:11:03;22.40;99.90
29353;DHT22;16344;50.364;8.944;2022-08-18T09:16:12;22.20;99.90
29353;DHT22;16344;50.364;8.944;2022-08-18T09:21:47;22.40;99.90
29353;DHT22;16344;50.364;8.944;2022-08-18T09:24:29;22.60;99.90
29353;DHT22;16344;50.364;8.944;2022-08-18T09:29:51;22.80;99.90
29353;DHT22;16344;50.364;8.944;2022-08-18T09:37:53;23.40;99.90
29353;DHT22;16344;50.364;8.944;2022-08-18T09:40:53;23.60;99.90
29353;DHT22;16344;50.364;8.944;2022-08-18T09:43:54;23.70;99.90
29353;DHT22;16344;50.364;8.944;2022-08-18T09:51:56;23.90;99.90
29353;DHT22;16344;50.364;8.944;2022-08-18T09:54:27;24.00;99.90
29353;DHT22;16344;50.364;8.944;2022-08-18T09:56:59;24.20;99.90
29353;DHT22;16344;50.364;8.944;2022-08-18T10:10:55;24.90;99.90
29353;DHT22;16344;50.364;8.944;2022-08-18T10:16:20;24.90;99.90
29353;DHT22;16344;50.364;8.944;2022-08-18T10:19:26;25.00;99.90
29353;DHT22;16344;50.364;8.944;2022-08-18T10:24:29;25.00;99.90
29353;DHT22;16344;50.364;8.944;2022-08-18T10:26:57;25.00;94.70
29353;DHT22;16344;50.364;8.944;2022-08-18T10:34:46;24.80;99.90
29353;DHT22;16344;50.364;8.944;2022-08-18T10:39:55;24.50;99.90
29353;DHT22;16344;50.364;8.944;2022-08-18T10:45:18;24.40;99.90
29353;DHT22;16344;50.364;8.944;2022-08-18T10:48:19;24.40;99.90
29353;DHT22;16344;50.364;8.944;2022-08-18T10:51:17;24.50;99.90
29353;DHT22;16344;50.364;8.944;2022-08-18T10:56:39;24.40;99.90
29353;DHT22;16344;50.364;8.944;2022-08-18T10:59:21;24.50;99.90
29353;DHT22;16344;50.364;8.944;2022-08-18T11:04:54;24.50;99.90
29353;DHT22;16344;50.364;8.944;2022-08-18T11:07:26;24.50;99.90
29353;DHT22;16344;50.364;8.944;2022-08-18T11:09:55;24.40;99.90
29353;DHT22;16344;50.364;8.944;2022-08-18T11:12:53;24.30;99.90
29353;DHT22;16344;50.364;8.944;2022-08-18T11:18:33;24.50;99.90
29353;DHT22;16344;50.364;8.944;2022-08-18T11:21:37;24.60;99.90
29353;DHT22;16344;50.364;8.944;2022-08-18T11:24:09;24.50;99.90
29353;DHT22;16344;50.364;8.944;2022-08-18T11:26:39;24.40;99.90
29353;DHT22;16344;50.364;8.944;2022-08-18T11:29:25;24.60;99.90
29353;DHT22;16344;50.364;8.944;2022-08-18T11:31:54;24.40;99.90
29353;DHT22;16344;50.364;8.944;2022-08-18T11:34:29;24.40;99.90
29353;DHT22;16344;50.364;8.944;2022-08-18T11:36:58;24.50;99.90
29353;DHT22;16344;50.364;8.944;2022-08-18T11:39:24;24.50;99.90
29353;DHT22;16344;50.364;8.944;2022-08-18T11:41:50;24.50;99.90
29353;DHT22;16344;50.364;8.944;2022-08-18T11:44:19;24.50;99.90
29353;DHT22;16344;50.364;8.944;2022-08-18T11:46:46;24.50;99.90
29353;DHT22;16344;50.364;8.944;2022-08-18T11:49:32;24.50;99.90
29353;DHT22;16344;50.364;8.944;2022-08-18T11:52:01;24.50;99.90
29353;DHT22;16344;50.364;8.944;2022-08-18T11:54:42;24.50;99.90
29353;DHT22;16344;50.364;8.944;2022-08-18T11:57:41;24.50;99.90
29353;DHT22;16344;50.364;8.944;2022-08-18T12:00:41;24.60;99.90
29353;DHT22;16344;50.364;8.944;2022-08-18T12:03:25;24.60;99.90
29353;DHT22;16344;50.364;8.944;2022-08-18T12:08:53;24.80;99.90
29353;DHT22;16344;50.364;8.944;2022-08-18T12:11:28;24.80;99.90
29353;DHT22;16344;50.364;8.944;2022-08-18T12:14:08;24.80;99.90
29353;DHT22;16344;50.364;8.944;2022-08-18T12:18:59;24.80;99.90
29353;DHT22;16344;50.364;8.944;2022-08-18T12:21:25;25.00;99.90
29353;DHT22;16344;50.364;8.944;2022-08-18T12:23:50;25.20;99.90
29353;DHT22;16344;50.364;8.944;2022-08-18T12:26:16;25.40;1.00
29353;DHT22;16344;50.364;8.944;2022-08-18T12:28:41;25.60;1.00
29353;DHT22;16344;50.364;8.944;2022-08-18T12:31:08;25.70;1.00
29353;DHT22;16344;50.364;8.944;2022-08-18T12:33:34;25.90;1.00
29353;DHT22;16344;50.364;8.944;2022-08-18T12:36:02;25.90;1.00
29353;DHT22;16344;50.364;8.944;2022-08-18T12:38:27;25.90;1.00
29353;DHT22;16344;50.364;8.944;2022-08-18T12:40:53;26.00;1.00
29353;DHT22;16344;50.364;8.944;2022-08-18T12:43:19;26.10;1.00
29353;DHT22;16344;50.364;8.944;2022-08-18T12:45:45;26.10;1.00
29353;DHT22;16344;50.364;8.944;2022-08-18T12:48:11;26.20;1.00
29353;DHT22;16344;50.364;8.944;2022-08-18T12:50:39;26.20;1.00
29353;DHT22;16344;50.364;8.944;2022-08-18T12:53:04;26.00;1.00
29353;DHT22;16344;50.364;8.944;2022-08-18T12:55:34;25.90;1.00
29353;DHT22;16344;50.364;8.944;2022-08-18T12:58:00;25.80;1.00
29353;DHT22;16344;50.364;8.944;2022-08-18T13:00:28;25.90;1.00
29353;DHT22;16344;50.364;8.944;2022-08-18T13:02:53;26.00;1.00
29353;DHT22;16344;50.364;8.944;2022-08-18T13:05:19;26.10;1.00
29353;DHT22;16344;50.364;8.944;2022-08-18T13:07:46;26.10;1.00
29353;DHT22;16344;50.364;8.944;2022-08-18T13:10:11;26.30;1.00
29353;DHT22;16344;50.364;8.944;2022-08-18T13:12:37;26.40;1.00
29353;DHT22;16344;50.364;8.944;2022-08-18T13:15:03;26.30;1.00
29353;DHT22;16344;50.364;8.944;2022-08-18T13:17:30;26.30;1.00
29353;DHT22;16344;50.364;8.944;2022-08-18T13:19:56;26.30;1.00
29353;DHT22;16344;50.364;8.944;2022-08-18T13:22:21;26.20;1.00
29353;DHT22;16344;50.364;8.944;2022-08-18T13:24:47;26.30;1.00
29353;DHT22;16344;50.364;8.944;2022-08-18T13:27:12;26.40;1.00
29353;DHT22;16344;50.364;8.944;2022-08-18T13:29:38;26.50;1.00
29353;DHT22;16344;50.364;8.944;2022-08-18T13:32:03;26.70;1.00
29353;DHT22;16344;50.364;8.944;2022-08-18T13:34:33;26.70;1.00
29353;DHT22;16344;50.364;8.944;2022-08-18T13:36:59;26.80;1.00
29353;DHT22;16344;50.364;8.944;2022-08-18T13:39:25;26.80;1.00
29353;DHT22;16344;50.364;8.944;2022-08-18T13:41:53;26.90;1.00
29353;DHT22;16344;50.364;8.944;2022-08-18T13:44:20;27.10;1.00
29353;DHT22;16344;50.364;8.944;2022-08-18T13:46:48;27.10;1.00
29353;DHT22;16344;50.364;8.944;2022-08-18T13:49:15;27.10;1.00
29353;DHT22;16344;50.364;8.944;2022-08-18T13:51:42;27.10;1.00
29353;DHT22;16344;50.364;8.944;2022-08-18T13:54:18;27.10;1.00
29353;DHT22;16344;50.364;8.944;2022-08-18T13:56:44;27.10;1.00
29353;DHT22;16344;50.364;8.944;2022-08-18T13:59:10;26.80;1.00
29353;DHT22;16344;50.364;8.944;2022-08-18T14:01:37;26.90;1.00
29353;DHT22;16344;50.364;8.944;2022-08-18T14:04:03;26.90;1.00
29353;DHT22;16344;50.364;8.944;2022-08-18T14:06:28;26.70;1.00
29353;DHT22;16344;50.364;8.944;2022-08-18T14:08:54;26.70;1.00
29353;DHT22;16344;50.364;8.944;2022-08-18T14:11:24;26.70;1.00
29353;DHT22;16344;50.364;8.944;2022-08-18T14:13:52;26.60;1.00
29353;DHT22;16344;50.364;8.944;2022-08-18T14:16:18;26.60;1.00
29353;DHT22;16344;50.364;8.944;2022-08-18T14:18:46;26.60;1.00
29353;DHT22;16344;50.364;8.944;2022-08-18T14:21:33;26.70;1.00
29353;DHT22;16344;50.364;8.944;2022-08-18T14:24:17;26.60;1.00
29353;DHT22;16344;50.364;8.944;2022-08-18T14:27:01;26.60;1.00
29353;DHT22;16344;50.364;8.944;2022-08-18T14:29:27;26.60;1.00
29353;DHT22;16344;50.364;8.944;2022-08-18T14:31:52;26.50;1.00
29353;DHT22;16344;50.364;8.944;2022-08-18T14:34:18;26.60;1.00
29353;DHT22;16344;50.364;8.944;2022-08-18T14:36:43;26.60;1.00
29353;DHT22;16344;50.364;8.944;2022-08-18T14:39:10;26.60;1.00
29353;DHT22;16344;50.364;8.944;2022-08-18T14:41:36;26.70;1.00
29353;DHT22;16344;50.364;8.944;2022-08-18T14:44:02;26.80;1.00
29353;DHT22;16344;50.364;8.944;2022-08-18T14:46:28;26.80;1.00
29353;DHT22;16344;50.364;8.944;2022-08-18T14:48:53;26.90;1.00
29353;DHT22;16344;50.364;8.944;2022-08-18T14:51:19;27.00;1.00
29353;DHT22;16344;50.364;8.944;2022-08-18T14:53:44;26.90;1.00
29353;DHT22;16344;50.364;8.944;2022-08-18T14:56:10;26.80;1.00
29353;DHT22;16344;50.364;8.944;2022-08-18T14:58:37;26.80;1.00
29353;DHT22;16344;50.364;8.944;2022-08-18T15:01:05;26.60;1.00
29353;DHT22;16344;50.364;8.944;2022-08-18T15:03:33;26.60;1.00
29353;DHT22;16344;50.364;8.944;2022-08-18T15:06:00;26.60;1.00
29353;DHT22;16344;50.364;8.944;2022-08-18T15:08:27;26.80;1.00
29353;DHT22;16344;50.364;8.944;2022-08-18T15:10:53;26.80;1.00
29353;DHT22;16344;50.364;8.944;2022-08-18T15:13:19;26.80;1.00
29353;DHT22;16344;50.364;8.944;2022-08-18T15:15:44;26.70;1.00
29353;DHT22;16344;50.364;8.944;2022-08-18T15:18:10;26.70;1.00
29353;DHT22;16344;50.364;8.944;2022-08-18T15:20:36;26.60;1.00
29353;DHT22;16344;50.364;8.944;2022-08-18T15:23:20;26.70;1.00
29353;DHT22;16344;50.364;8.944;2022-08-18T15:26:04;26.70;1.00
29353;DHT22;16344;50.364;8.944;2022-08-18T15:28:30;26.60;1.00
29353;DHT22;16344;50.364;8.944;2022-08-18T15:30:57;26.60;1.00
29353;DHT22;16344;50.364;8.944;2022-08-18T15:33:22;26.50;1.00
29353;DHT22;16344;50.364;8.944;2022-08-18T15:35:48;26.60;1.00
29353;DHT22;16344;50.364;8.944;2022-08-18T15:38:18;26.60;1.00
29353;DHT22;16344;50.364;8.944;2022-08-18T15:43:14;26.60;1.00
29353;DHT22;16344;50.364;8.944;2022-08-18T15:45:41;26.40;1.00
29353;DHT22;16344;50.364;8.944;2022-08-18T15:48:09;26.40;1.00
29353;DHT22;16344;50.364;8.944;2022-08-18T15:50:35;26.30;1.00
29353;DHT22;16344;50.364;8.944;2022-08-18T15:53:04;26.30;1.00
29353;DHT22;16344;50.364;8.944;2022-08-18T15:55:31;26.20;1.00
29353;DHT22;16344;50.364;8.944;2022-08-18T15:57:57;26.00;1.00
29353;DHT22;16344;50.364;8.944;2022-08-18T16:00:25;26.10;1.00
29353;DHT22;16344;50.364;8.944;2022-08-18T16:03:04;25.90;1.00
29353;DHT22;16344;50.364;8.944;2022-08-18T16:05:33;25.90;1.00
29353;DHT22;16344;50.364;8.944;2022-08-18T16:08:00;25.90;1.00
29353;DHT22;16344;50.364;8.944;2022-08-18T16:10:29;26.00;1.00
29353;DHT22;16344;50.364;8.944;2022-08-18T16:12:56;25.90;1.00
29353;DHT22;16344;50.364;8.944;2022-08-18T16:15:23;25.90;1.00
29353;DHT22;16344;50.364;8.944;2022-08-18T16:17:50;25.90;1.00
29353;DHT22;16344;50.364;8.944;2022-08-18T16:20:17;26.10;1.00
29353;DHT22;16344;50.364;8.944;2022-08-18T16:22:44;26.20;1.00
29353;DHT22;16344;50.364;8.944;2022-08-18T16:25:10;26.20;1.00
29353;DHT22;16344;50.364;8.944;2022-08-18T16:27:37;26.20;1.00
29353;DHT22;16344;50.364;8.944;2022-08-18T16:30:09;26.10;1.00
29353;DHT22;16344;50.364;8.944;2022-08-18T16:32:34;26.10;1.00
29353;DHT22;16344;50.364;8.944;2022-08-18T16:35:00;26.00;1.00
29353;DHT22;16344;50.364;8.944;2022-08-18T16:37:26;25.90;1.00
29353;DHT22;16344;50.364;8.944;2022-08-18T16:39:52;25.80;1.00
29353;DHT22;16344;50.364;8.944;2022-08-18T16:42:18;25.80;1.00
29353;DHT22;16344;50.364;8.944;2022-08-18T16:44:44;25.90;1.00
29353;DHT22;16344;50.364;8.944;2022-08-18T16:47:10;25.90;1.00
29353;DHT22;16344;50.364;8.944;2022-08-18T16:49:38;26.00;1.00
29353;DHT22;16344;50.364;8.944;2022-08-18T16:52:04;26.10;1.00
29353;DHT22;16344;50.364;8.944;2022-08-18T16:54:31;26.20;1.00
29353;DHT22;16344;50.364;8.944;2022-08-18T16:56:57;26.00;1.00
29353;DHT22;16344;50.364;8.944;2022-08-18T16:59:23;26.10;1.00
29353;DHT22;16344;50.364;8.944;2022-08-18T17:02:08;26.00;1.00
29353;DHT22;16344;50.364;8.944;2022-08-18T17:05:00;26.00;1.00
29353;DHT22;16344;50.364;8.944;2022-08-18T17:07:28;26.00;1.00
29353;DHT22;16344;50.364;8.944;2022-08-18T17:09:54;26.00;1.00
29353;DHT22;16344;50.364;8.944;2022-08-18T17:12:20;26.00;1.00
29353;DHT22;16344;50.364;8.944;2022-08-18T17:14:46;26.10;1.00
29353;DHT22;16344;50.364;8.944;2022-08-18T17:17:13;26.10;1.00
29353;DHT22;16344;50.364;8.944;2022-08-18T17:19:39;26.10;1.00
29353;DHT22;16344;50.364;8.944;2022-08-18T17:22:05;26.20;1.00
29353;DHT22;16344;50.364;8.944;2022-08-18T17:24:31;26.10;1.00
29353;DHT22;16344;50.364;8.944;2022-08-18T17:29:42;26.00;1.00
29353;DHT22;16344;50.364;8.944;2022-08-18T17:32:22;26.00;1.00
29353;DHT22;16344;50.364;8.944;2022-08-18T17:34:55;26.00;1.00
29353;DHT22;16344;50.364;8.944;2022-08-18T17:37:22;25.90;1.00
29353;DHT22;16344;50.364;8.944;2022-08-18T17:39:53;25.90;1.00
29353;DHT22;16344;50.364;8.944;2022-08-18T17:42:19;25.90;1.00
29353;DHT22;16344;50.364;8.944;2022-08-18T17:44:55;25.70;1.00
29353;DHT22;16344;50.364;8.944;2022-08-18T17:47:59;25.60;1.00
29353;DHT22;16344;50.364;8.944;2022-08-18T17:50:51;25.50;1.00
29353;DHT22;16344;50.364;8.944;2022-08-18T17:53:36;25.40;1.00